createdAt,value
2018-07-03T00:00:24.123Z,15.90
2018-07-03T00:02:52.390Z,15.80
2018-07-03T00:05:20.587Z,15.70
2018-07-03T00:07:48.816Z,15.70
2018-07-03T00:10:16.999Z,15.60
2018-07-03T00:12:45.190Z,15.70
2018-07-03T00:15:13.436Z,15.60
2018-07-03T00:17:41.646Z,15.60
2018-07-03T00:20:09.794Z,15.60
2018-07-03T00:22:37.989Z,15.50
2018-07-03T00:25:06.231Z,15.50
2018-07-03T00:27:34.475Z,15.40
2018-07-03T00:30:02.668Z,15.20
2018-07-03T00:32:30.852Z,15.10
2018-07-03T00:34:59.054Z,15.10
2018-07-03T00:37:27.310Z,15.10
2018-07-03T00:39:55.577Z,15.10
2018-07-03T00:42:23.776Z,15.10
2018-07-03T00:44:51.960Z,15.00
2018-07-03T00:47:20.135Z,15.00
2018-07-03T00:49:48.294Z,15.00
2018-07-03T00:52:16.480Z,15.00
2018-07-03T00:54:44.669Z,15.00
2018-07-03T00:57:12.899Z,14.90
2018-07-03T00:59:52.539Z,14.80
2018-07-03T01:02:20.748Z,14.80
2018-07-03T01:04:48.914Z,14.70
2018-07-03T01:07:17.899Z,14.70
2018-07-03T01:09:46.954Z,14.60
2018-07-03T01:12:15.123Z,14.60
2018-07-03T01:14:43.292Z,14.60
2018-07-03T01:17:11.536Z,14.60
2018-07-03T01:19:39.795Z,14.50
2018-07-03T01:22:07.975Z,14.50
2018-07-03T01:24:36.230Z,14.50
2018-07-03T01:27:04.506Z,14.40
2018-07-03T01:29:32.763Z,14.40
2018-07-03T01:32:00.929Z,14.40
2018-07-03T01:34:29.647Z,14.30
2018-07-03T01:36:57.825Z,14.30
2018-07-03T01:39:26.056Z,14.20
2018-07-03T01:41:54.250Z,14.20
2018-07-03T01:44:22.464Z,14.20
2018-07-03T01:46:50.678Z,14.10
2018-07-03T01:49:18.884Z,14.00
2018-07-03T01:51:47.471Z,14.00
2018-07-03T01:54:15.736Z,14.00
2018-07-03T01:56:43.942Z,13.90
2018-07-03T01:59:12.722Z,13.90
2018-07-03T02:01:41.953Z,13.90
2018-07-03T02:04:10.605Z,13.90
2018-07-03T02:06:38.801Z,13.90
2018-07-03T02:09:09.612Z,13.90
2018-07-03T02:11:37.798Z,13.80
2018-07-03T02:14:06.172Z,13.90
2018-07-03T02:16:34.419Z,13.80
2018-07-03T02:19:02.664Z,13.80
2018-07-03T02:21:30.879Z,13.80
2018-07-03T02:23:59.203Z,13.80
2018-07-03T02:26:27.419Z,13.70
2018-07-03T02:28:55.596Z,14.00
2018-07-03T02:31:24.102Z,14.10
2018-07-03T02:33:53.186Z,14.10
2018-07-03T02:36:21.448Z,14.10
2018-07-03T02:38:49.667Z,14.20
2018-07-03T02:41:17.882Z,14.40
2018-07-03T02:43:46.059Z,14.60
2018-07-03T02:46:14.271Z,14.60
2018-07-03T02:48:42.438Z,14.70
2018-07-03T02:51:10.602Z,14.60
2018-07-03T02:53:38.765Z,14.60
2018-07-03T02:56:06.950Z,14.60
2018-07-03T02:58:35.204Z,14.50
2018-07-03T03:01:03.364Z,14.40
2018-07-03T03:03:31.540Z,14.30
2018-07-03T03:05:59.748Z,14.30
2018-07-03T03:08:28.144Z,14.10
2018-07-03T03:10:56.484Z,14.10
2018-07-03T03:13:24.724Z,14.00
2018-07-03T03:15:52.953Z,13.90
2018-07-03T03:18:21.163Z,13.90
2018-07-03T03:20:49.413Z,13.80
2018-07-03T03:23:18.469Z,13.70
2018-07-03T03:25:46.674Z,13.60
2018-07-03T03:28:14.911Z,13.60
2018-07-03T03:30:43.221Z,13.60
2018-07-03T03:33:11.434Z,13.50
2018-07-03T03:35:39.628Z,13.50
2018-07-03T03:38:07.848Z,13.50
2018-07-03T03:40:36.123Z,13.50
2018-07-03T03:43:04.324Z,13.50
2018-07-03T03:45:32.562Z,13.40
2018-07-03T03:48:00.766Z,13.40
2018-07-03T03:52:56.971Z,13.40
2018-07-03T03:55:25.163Z,13.40
2018-07-03T03:57:53.388Z,13.40
2018-07-03T04:00:21.572Z,13.40
2018-07-03T04:02:49.778Z,13.40
2018-07-03T04:05:18.022Z,13.40
2018-07-03T04:07:46.343Z,13.40
2018-07-03T04:10:14.553Z,13.40
2018-07-03T04:12:42.771Z,13.40
2018-07-03T04:15:11.092Z,13.40
2018-07-03T04:17:39.283Z,13.50
2018-07-03T04:20:08.031Z,13.40
2018-07-03T04:22:36.620Z,13.40
2018-07-03T04:25:04.847Z,13.50
2018-07-03T04:27:33.226Z,13.50
2018-07-03T04:30:01.488Z,13.50
2018-07-03T04:32:29.675Z,13.60
2018-07-03T04:34:57.893Z,13.60
2018-07-03T04:37:26.104Z,13.70
2018-07-03T04:39:54.336Z,13.70
2018-07-03T04:42:22.679Z,13.90
2018-07-03T04:44:50.887Z,14.00
2018-07-03T04:47:19.084Z,14.30
2018-07-03T04:49:47.359Z,14.70
2018-07-03T04:52:15.562Z,15.10
2018-07-03T04:54:44.015Z,15.60
2018-07-03T04:57:12.245Z,15.80
2018-07-03T04:59:40.492Z,16.20
2018-07-03T05:02:08.800Z,16.40
2018-07-03T05:04:37.006Z,16.90
2018-07-03T05:09:33.215Z,17.50
2018-07-03T05:12:01.522Z,17.90
2018-07-03T05:14:29.845Z,18.00
2018-07-03T05:16:58.970Z,18.40
2018-07-03T05:19:29.100Z,18.50
2018-07-03T05:21:57.276Z,18.70
2018-07-03T05:24:25.529Z,18.90
2018-07-03T05:26:54.463Z,19.20
2018-07-03T05:29:22.649Z,19.40
2018-07-03T05:31:51.124Z,19.70
2018-07-03T05:34:19.348Z,20.10
2018-07-03T05:36:50.996Z,20.60
2018-07-03T05:39:19.239Z,20.70
2018-07-03T05:41:47.480Z,20.70
2018-07-03T05:44:15.696Z,20.60
2018-07-03T05:46:43.914Z,20.70
2018-07-03T05:49:12.142Z,20.70
2018-07-03T05:51:40.428Z,20.90
2018-07-03T05:54:08.633Z,21.00
2018-07-03T05:56:36.929Z,21.20
2018-07-03T05:59:05.092Z,21.00
2018-07-03T06:01:33.270Z,21.20
2018-07-03T06:06:38.706Z,21.40
2018-07-03T06:09:09.625Z,21.50
2018-07-03T06:11:55.948Z,21.60
2018-07-03T06:17:11.619Z,22.00
2018-07-03T06:19:41.121Z,22.00
2018-07-03T06:22:09.456Z,22.10
2018-07-03T06:24:37.794Z,22.00
2018-07-03T06:27:06.180Z,22.40
2018-07-03T06:29:34.480Z,22.30
2018-07-03T06:32:02.762Z,22.10
2018-07-03T06:34:31.620Z,22.10
2018-07-03T06:36:59.842Z,22.20
2018-07-03T06:39:28.317Z,22.50
2018-07-03T06:41:56.571Z,22.80
2018-07-03T06:44:24.859Z,22.30
2018-07-03T06:46:53.483Z,22.10
2018-07-03T06:49:22.112Z,22.60
2018-07-03T06:51:50.482Z,22.60
2018-07-03T06:54:18.655Z,22.50
2018-07-03T06:56:46.860Z,22.80
2018-07-03T06:59:15.096Z,23.00
2018-07-03T07:01:43.456Z,23.20
2018-07-03T07:04:11.686Z,23.30
2018-07-03T07:09:09.191Z,23.00
2018-07-03T07:11:37.276Z,23.00
2018-07-03T07:14:05.582Z,23.40
2018-07-03T07:16:33.778Z,23.60
2018-07-03T07:19:01.974Z,23.80
2018-07-03T07:21:30.151Z,24.20
2018-07-03T07:23:58.392Z,23.90
2018-07-03T07:26:26.600Z,24.20
2018-07-03T07:28:54.924Z,24.30
2018-07-03T07:31:23.296Z,23.90
2018-07-03T07:33:51.475Z,24.40
2018-07-03T07:36:20.548Z,24.50
2018-07-03T07:38:48.772Z,25.00
2018-07-03T07:41:17.215Z,25.00
2018-07-03T07:43:45.457Z,25.20
2018-07-03T07:46:13.635Z,25.30
2018-07-03T07:48:41.844Z,25.60
2018-07-03T07:51:10.187Z,25.70
2018-07-03T07:53:38.358Z,25.50
2018-07-03T07:56:06.574Z,25.40
2018-07-03T07:58:34.738Z,25.50
2018-07-03T08:01:02.976Z,25.90
2018-07-03T08:03:31.160Z,25.70
2018-07-03T08:05:59.534Z,25.50
2018-07-03T08:08:27.746Z,25.50
2018-07-03T08:10:55.996Z,25.50
2018-07-03T08:13:24.274Z,26.00
2018-07-03T08:15:52.474Z,25.90
2018-07-03T08:18:20.703Z,26.20
2018-07-03T08:20:48.958Z,26.10
2018-07-03T08:23:17.146Z,26.20
2018-07-03T08:25:45.403Z,26.30
2018-07-03T08:28:13.611Z,25.90
2018-07-03T08:30:41.857Z,25.70
2018-07-03T08:33:12.071Z,25.90
2018-07-03T08:35:40.381Z,26.30
2018-07-03T08:38:09.042Z,26.70
2018-07-03T08:40:37.217Z,27.20
2018-07-03T08:43:05.766Z,27.30
2018-07-03T08:45:34.148Z,27.00
2018-07-03T08:48:02.432Z,27.30
2018-07-03T08:52:58.667Z,27.30
2018-07-03T08:55:26.934Z,27.00
2018-07-03T08:57:55.201Z,26.60
2018-07-03T09:00:23.413Z,26.50
2018-07-03T09:02:51.674Z,26.80
2018-07-03T09:05:19.950Z,26.90
2018-07-03T09:07:48.207Z,27.10
2018-07-03T09:10:16.426Z,27.50
2018-07-03T09:12:44.691Z,27.60
2018-07-03T09:15:12.932Z,27.30
2018-07-03T09:17:41.130Z,27.60
2018-07-03T09:20:09.352Z,28.00
2018-07-03T09:22:37.567Z,28.20
2018-07-03T09:25:05.785Z,27.90
2018-07-03T09:27:34.075Z,27.90
2018-07-03T09:30:02.338Z,28.10
2018-07-03T09:32:30.627Z,27.90
2018-07-03T09:34:58.838Z,27.90
2018-07-03T09:37:27.031Z,28.20
2018-07-03T09:39:55.230Z,28.40
2018-07-03T09:42:23.506Z,28.60
2018-07-03T09:44:51.675Z,28.90
2018-07-03T09:47:20.012Z,28.50
2018-07-03T09:49:48.203Z,28.50
2018-07-03T09:52:16.403Z,29.00
2018-07-03T09:54:44.622Z,28.70
2018-07-03T09:57:12.807Z,28.80
2018-07-03T09:59:52.311Z,29.20
2018-07-03T10:02:20.935Z,29.80
2018-07-03T10:04:49.130Z,30.00
2018-07-03T10:07:17.286Z,29.80
2018-07-03T10:09:46.504Z,29.50
2018-07-03T10:12:14.728Z,29.60
2018-07-03T10:14:43.011Z,29.60
2018-07-03T10:17:12.239Z,29.90
2018-07-03T10:19:41.370Z,30.00
2018-07-03T10:22:09.580Z,30.00
2018-07-03T10:24:37.781Z,30.20
2018-07-03T10:27:06.088Z,29.30
2018-07-03T10:29:34.290Z,29.30
2018-07-03T10:32:02.528Z,29.00
2018-07-03T10:34:30.763Z,28.70
2018-07-03T10:36:59.002Z,28.40
2018-07-03T10:39:27.209Z,28.20
2018-07-03T10:41:55.490Z,28.20
2018-07-03T10:49:19.624Z,28.80
2018-07-03T10:51:47.852Z,28.60
2018-07-03T10:54:16.095Z,28.60
2018-07-03T10:56:44.291Z,28.40
2018-07-03T10:59:12.492Z,28.20
2018-07-03T11:01:40.739Z,28.00
2018-07-03T11:04:08.957Z,28.00
2018-07-03T11:06:37.407Z,27.70
2018-07-03T11:09:08.788Z,27.90
2018-07-03T11:11:37.019Z,28.10
2018-07-03T11:14:08.734Z,28.10
2018-07-03T11:16:36.859Z,27.80
2018-07-03T11:19:06.102Z,27.80
2018-07-03T11:21:34.407Z,27.80
2018-07-03T11:24:02.608Z,27.90
2018-07-03T11:26:31.047Z,27.80
2018-07-03T11:28:59.395Z,27.80
2018-07-03T11:31:27.633Z,27.80
2018-07-03T11:33:55.870Z,28.00
2018-07-03T11:36:24.174Z,28.10
2018-07-03T11:38:52.446Z,28.20
2018-07-03T11:41:20.809Z,28.10
2018-07-03T11:43:49.075Z,28.00
2018-07-03T11:46:17.312Z,27.90
2018-07-03T11:48:45.591Z,28.00
2018-07-03T11:51:13.803Z,27.90
2018-07-03T11:53:42.105Z,27.90
2018-07-03T11:56:10.299Z,27.70
2018-07-03T11:58:38.518Z,27.80
2018-07-03T12:01:06.864Z,27.80
2018-07-03T12:03:35.121Z,28.00
2018-07-03T12:06:03.354Z,28.10
2018-07-03T12:08:31.613Z,28.30
2018-07-03T12:10:59.845Z,28.30
2018-07-03T12:13:28.059Z,28.30
2018-07-03T12:15:56.288Z,28.40
2018-07-03T12:18:29.824Z,28.40
2018-07-03T12:20:58.075Z,28.40
2018-07-03T12:25:54.329Z,28.20
2018-07-03T12:28:22.523Z,28.40
2018-07-03T12:30:50.735Z,28.50
2018-07-03T12:33:18.997Z,28.50
2018-07-03T12:35:47.213Z,28.50
2018-07-03T12:38:15.419Z,28.50
2018-07-03T12:40:43.619Z,28.50
2018-07-03T12:43:11.837Z,28.80
2018-07-03T12:45:40.027Z,29.00
2018-07-03T12:48:08.233Z,29.20
2018-07-03T12:50:36.476Z,29.20
2018-07-03T12:53:04.845Z,29.00
2018-07-03T12:55:33.115Z,29.30
2018-07-03T12:58:02.739Z,29.30
2018-07-03T13:00:30.937Z,29.40
2018-07-03T13:02:59.137Z,29.30
2018-07-03T13:05:27.405Z,29.30
2018-07-03T13:07:55.600Z,29.40
2018-07-03T13:10:23.919Z,29.40
2018-07-03T13:12:52.131Z,29.50
2018-07-03T13:15:20.386Z,29.30
2018-07-03T13:17:48.592Z,29.30
2018-07-03T13:20:16.831Z,29.20
2018-07-03T13:22:45.190Z,29.10
2018-07-03T13:25:13.648Z,29.00
2018-07-03T13:27:41.867Z,29.00
2018-07-03T13:30:10.717Z,29.20
2018-07-03T13:32:38.927Z,29.40
2018-07-03T13:35:08.552Z,29.30
2018-07-03T13:37:36.811Z,29.20
2018-07-03T13:40:06.022Z,29.20
2018-07-03T13:42:34.283Z,29.20
2018-07-03T13:45:02.583Z,29.10
2018-07-03T13:47:30.784Z,28.90
2018-07-03T13:49:58.974Z,28.70
2018-07-03T13:52:27.197Z,28.80
2018-07-03T13:54:55.389Z,28.80
2018-07-03T13:57:23.575Z,29.10
2018-07-03T13:59:51.727Z,29.10
2018-07-03T14:02:20.010Z,29.30
2018-07-03T14:04:48.273Z,29.30
2018-07-03T14:07:16.444Z,29.20
2018-07-03T14:09:44.697Z,29.30
2018-07-03T14:12:12.891Z,29.40
2018-07-03T14:14:41.100Z,29.60
2018-07-03T14:17:09.354Z,29.50
2018-07-03T14:19:37.504Z,29.60
2018-07-03T14:22:05.737Z,29.50
2018-07-03T14:24:34.871Z,29.50
2018-07-03T14:27:03.070Z,29.50
2018-07-03T14:29:31.248Z,29.60
2018-07-03T14:31:59.503Z,29.60
2018-07-03T14:34:27.687Z,29.60
2018-07-03T14:36:55.876Z,29.60
2018-07-03T14:39:24.076Z,29.50
2018-07-03T14:41:52.447Z,29.60
2018-07-03T14:44:21.719Z,29.60
2018-07-03T14:46:49.919Z,29.80
2018-07-03T14:49:18.151Z,29.70
2018-07-03T14:51:46.338Z,29.70
2018-07-03T14:54:14.640Z,29.50
2018-07-03T14:56:42.945Z,29.40
2018-07-03T14:59:11.506Z,29.50
2018-07-03T15:01:39.735Z,29.50
2018-07-03T15:04:08.140Z,29.50
2018-07-03T15:06:36.312Z,29.50
2018-07-03T15:09:07.525Z,29.60
2018-07-03T15:11:35.732Z,29.70
2018-07-03T15:14:03.890Z,29.60
2018-07-03T15:16:32.153Z,29.50
2018-07-03T15:19:05.837Z,29.50
2018-07-03T15:21:34.059Z,29.50
2018-07-03T15:24:02.497Z,29.60
2018-07-03T15:26:30.719Z,29.60
2018-07-03T15:28:58.941Z,29.60
2018-07-03T15:31:27.147Z,29.60
2018-07-03T15:33:55.389Z,29.50
2018-07-03T15:36:23.559Z,29.40
2018-07-03T15:38:51.794Z,29.40
2018-07-03T15:41:19.957Z,29.40
2018-07-03T15:43:59.448Z,29.30
2018-07-03T15:46:27.626Z,29.20
2018-07-03T15:48:55.976Z,29.20
2018-07-03T15:51:24.195Z,29.40
2018-07-03T15:53:52.611Z,29.50
2018-07-03T15:56:21.004Z,29.60
2018-07-03T15:58:49.154Z,29.60
2018-07-03T16:01:17.362Z,29.70
2018-07-03T16:04:06.970Z,29.70
2018-07-03T16:07:07.336Z,29.70
2018-07-03T16:09:35.636Z,29.90
2018-07-03T16:12:03.868Z,29.80
2018-07-03T16:14:32.112Z,29.80
2018-07-03T16:17:00.283Z,29.80
2018-07-03T16:19:33.938Z,29.70
2018-07-03T16:22:02.164Z,29.50
2018-07-03T16:24:30.357Z,29.60
2018-07-03T16:26:58.561Z,29.80
2018-07-03T16:29:27.169Z,30.20
2018-07-03T16:31:55.536Z,30.10
2018-07-03T16:34:23.876Z,30.20
2018-07-03T16:36:52.211Z,30.40
2018-07-03T16:39:20.456Z,30.40
2018-07-03T16:41:49.029Z,30.20
2018-07-03T16:44:17.441Z,30.30
2018-07-03T16:46:46.718Z,30.30
2018-07-03T16:49:14.968Z,30.50
2018-07-03T16:51:43.610Z,30.50
2018-07-03T16:54:11.851Z,30.40
2018-07-03T16:56:40.130Z,30.30
2018-07-03T16:59:08.326Z,30.30
2018-07-03T17:01:37.909Z,30.40
2018-07-03T17:04:06.350Z,30.30
2018-07-03T17:06:36.724Z,30.00
2018-07-03T17:09:09.049Z,30.00
2018-07-03T17:11:38.013Z,30.10
2018-07-03T17:14:08.202Z,30.20
2018-07-03T17:16:36.760Z,30.50
2018-07-03T17:19:11.335Z,30.40
2018-07-03T17:21:39.687Z,30.40
2018-07-03T17:24:08.055Z,30.80
2018-07-03T17:26:36.467Z,31.60
2018-07-03T17:29:05.117Z,32.20
2018-07-03T17:34:02.065Z,32.50
2018-07-03T17:36:30.795Z,32.80
2018-07-03T17:39:09.918Z,33.20
2018-07-03T17:41:49.527Z,32.90
2018-07-03T17:44:32.278Z,32.50
2018-07-03T17:47:00.548Z,31.90
2018-07-03T17:49:28.760Z,31.30
2018-07-03T17:51:57.071Z,30.90
2018-07-03T17:54:25.281Z,30.50
2018-07-03T17:56:53.509Z,30.10
2018-07-03T17:59:21.747Z,29.70
2018-07-03T18:01:50.072Z,29.70
2018-07-03T18:04:19.079Z,29.50
2018-07-03T18:06:48.307Z,29.30
2018-07-03T18:09:17.309Z,29.30
2018-07-03T18:11:46.672Z,29.20
2018-07-03T18:14:16.071Z,29.10
2018-07-03T18:16:44.741Z,29.10
2018-07-03T18:19:20.485Z,28.70
2018-07-03T18:21:48.975Z,28.40
2018-07-03T18:24:17.300Z,28.10
2018-07-03T18:26:48.281Z,28.00
2018-07-03T18:29:16.883Z,28.10
2018-07-03T18:31:45.285Z,28.00
2018-07-03T18:34:13.817Z,27.90
2018-07-03T18:36:42.853Z,27.80
2018-07-03T18:39:18.732Z,27.70
2018-07-03T18:41:46.971Z,27.70
2018-07-03T18:44:15.240Z,27.50
2018-07-03T18:46:43.595Z,27.50
2018-07-03T18:49:11.878Z,27.30
2018-07-03T18:51:40.596Z,27.10
2018-07-03T18:54:08.944Z,26.80
2018-07-03T18:56:38.892Z,26.50
2018-07-03T18:59:07.148Z,26.30
2018-07-03T19:01:35.474Z,26.00
2018-07-03T19:04:04.060Z,25.70
2018-07-03T19:06:32.437Z,25.50
2018-07-03T19:09:00.737Z,25.30
2018-07-03T19:11:29.066Z,25.10
2018-07-03T19:13:57.418Z,24.90
2018-07-03T19:16:25.795Z,24.70
2018-07-03T19:18:54.068Z,24.60
2018-07-03T19:21:22.321Z,24.30
2018-07-03T19:23:50.533Z,24.10
2018-07-03T19:26:24.449Z,24.00
2018-07-03T19:29:12.866Z,23.80
2018-07-03T19:31:41.092Z,23.60
2018-07-03T19:34:09.409Z,23.50
2018-07-03T19:36:37.622Z,23.40
2018-07-03T19:39:08.927Z,23.30
2018-07-03T19:44:05.358Z,23.10
2018-07-03T19:46:33.693Z,23.00
2018-07-03T19:54:51.968Z,22.50
2018-07-03T19:57:20.216Z,22.40
2018-07-03T19:59:49.056Z,22.30
2018-07-03T20:02:17.372Z,22.20
2018-07-03T20:04:45.801Z,22.10
2018-07-03T20:07:14.131Z,21.90
2018-07-03T20:09:42.460Z,21.80
2018-07-03T20:12:10.737Z,21.70
2018-07-03T20:14:39.078Z,21.60
2018-07-03T20:17:11.967Z,21.40
2018-07-03T20:19:40.256Z,21.40
2018-07-03T20:22:14.295Z,21.30
2018-07-03T20:24:42.578Z,21.20
2018-07-03T20:27:18.321Z,21.10
2018-07-03T20:29:53.470Z,21.00
2018-07-03T20:32:21.707Z,20.90
2018-07-03T20:34:49.914Z,20.80
2018-07-03T20:37:18.444Z,20.70
2018-07-03T20:42:53.516Z,20.60
2018-07-03T20:45:21.885Z,20.50
2018-07-03T20:47:50.129Z,20.50
2018-07-03T20:50:19.132Z,20.30
2018-07-03T20:52:47.540Z,20.30
2018-07-03T20:55:16.416Z,20.20
2018-07-03T20:57:45.950Z,20.10
2018-07-03T21:00:28.951Z,20.10
2018-07-03T21:02:57.250Z,20.00
2018-07-03T21:05:25.523Z,19.90
2018-07-03T21:07:53.875Z,19.90
2018-07-03T21:10:22.368Z,19.80
2018-07-03T21:12:50.579Z,19.70
2018-07-03T21:15:18.811Z,19.70
2018-07-03T21:17:47.082Z,19.60
2018-07-03T21:20:15.302Z,19.50
2018-07-03T21:22:43.503Z,19.40
2018-07-03T21:25:11.739Z,19.30
2018-07-03T21:27:40.209Z,19.30
2018-07-03T21:30:08.419Z,19.30
2018-07-03T21:35:04.905Z,19.30
2018-07-03T21:37:33.202Z,19.20
2018-07-03T21:40:01.532Z,19.20
2018-07-03T21:42:30.047Z,19.20
2018-07-03T21:44:58.265Z,19.10
2018-07-03T21:47:27.045Z,19.00
2018-07-03T21:49:55.335Z,19.00
2018-07-03T21:52:23.637Z,18.90
2018-07-03T21:57:23.310Z,18.80
2018-07-03T21:59:51.640Z,18.70
2018-07-03T22:02:24.086Z,18.60
2018-07-03T22:04:52.352Z,18.60
2018-07-03T22:07:20.626Z,18.50
2018-07-03T22:09:48.809Z,18.50
2018-07-03T22:12:17.077Z,18.40
2018-07-03T22:14:45.363Z,18.40
2018-07-03T22:17:13.599Z,18.40
2018-07-03T22:20:04.875Z,18.30
2018-07-03T22:22:33.154Z,18.30
2018-07-03T22:25:01.391Z,18.30
2018-07-03T22:27:29.576Z,18.20
2018-07-03T22:29:57.771Z,18.20
2018-07-03T22:35:25.384Z,18.10
2018-07-03T22:38:12.107Z,18.00
2018-07-03T22:43:46.058Z,17.80
2018-07-03T22:46:15.239Z,17.80
2018-07-03T22:48:43.531Z,17.70
2018-07-03T22:51:11.704Z,17.70
2018-07-03T22:53:39.911Z,17.60
2018-07-03T22:56:08.178Z,17.60
2018-07-03T22:58:36.457Z,17.50
2018-07-03T23:01:04.684Z,17.50
2018-07-03T23:03:32.926Z,17.40
2018-07-03T23:06:01.344Z,17.40
2018-07-03T23:08:29.682Z,17.30
2018-07-03T23:10:57.992Z,17.30
2018-07-03T23:13:26.215Z,17.20
2018-07-03T23:15:54.455Z,17.20
2018-07-03T23:18:22.627Z,17.10
2018-07-03T23:20:50.828Z,17.10
2018-07-03T23:23:19.018Z,17.00
2018-07-03T23:25:47.213Z,17.00
2018-07-03T23:28:15.383Z,17.00
2018-07-03T23:30:43.590Z,16.90
2018-07-03T23:33:11.828Z,16.90
2018-07-03T23:35:40.028Z,16.80
2018-07-03T23:38:08.263Z,16.80
2018-07-03T23:40:36.509Z,16.70
2018-07-03T23:43:04.677Z,16.60
2018-07-03T23:45:38.844Z,16.60
2018-07-03T23:48:18.405Z,16.50
2018-07-03T23:50:58.128Z,16.50
2018-07-03T23:53:37.804Z,16.40
2018-07-03T23:56:17.248Z,16.20
2018-07-03T23:58:56.856Z,16.10
